Terminal Aerodrome Forecast
Issued by NWS

Home | Current Version | Previous Version | Text Only | Print | Product List | Glossary On
Versions: 1 2 3 4 5 6 7 8 9 10 11 12 13
250
FTUS44 KLIX 301120
TAFMCB
TAF
KMCB 301120Z 3012/3112 02005KT P6SM SKC
     FM301700 06006KT P6SM FEW050 SCT250
     FM310200 06003KT P6SM FEW050 SCT250=

USA.gov is the U.S. government's official web portal to all federal, state and local government web resources and services.